Perth, North Dakota
Current Conditions -  °F | °C
As of 11:55 AM on Saturday 22 Nov 2014 (Local Time) from K06D Reporting Station
Moderate Fog Moderate Fog  
Wind Chill: 18°   Ceiling: 200
Heat Index: 28°   Visibility: 0.25mi
Dew Point: 28°   Wind: 12mph
Humidity: 100%   Direction: 140°SE
Pressure: 29.48"   Gusts: NA
Location:  48.72°N, 99.46°W
Report Text: K06D 221755Z AUTO 14010KT 1/4SM FZFG OVC002 M02/M02 A2948 RMK AO2
Loading
Personal Weather Stations






























Interactive Weather Map New forecast layout! Learn more

10-Day Weather Forecast

Advertisements
Track Severe Weather on mobile